Time;durP1;ratioP1;P1;durP2;ratioP2;P2;SDS_P1;SDS_P2;PMS_P1;PMS_P2;Temp;Humidity;BMP_temperature;BMP_pressure;BME280_temperature;BME280_humidity;BME280_pressure;Samples;Min_cycle;Max_cycle;Signal;HPM_P1;HPM_P2
2022/02/09 00:07:52;;;;;;;8.85;2.78;;;25.40;63.20;;;;;;5048737;28;20053;-69
2022/02/09 00:10:18;;;;;;;4.72;2.20;;;25.40;62.70;;;;;;5048581;28;20388;-70
2022/02/09 00:12:53;;;;;;;9.52;2.50;;;25.30;62.70;;;;;;5047927;28;20116;-70
2022/02/09 00:23:49;;;;;;;6.80;2.40;;;25.20;62.90;;;;;;5012522;28;20164;-70
2022/02/09 00:29:27;;;;;;;2.53;1.30;;;25.20;63.00;;;;;;5049485;28;20114;-70
2022/02/09 00:32:09;;;;;;;5.30;1.85;;;25.20;63.00;;;;;;5044158;28;20127;-69
2022/02/09 01:56:22;;;;;;;5.05;1.60;;;24.70;64.70;;;;;;5050874;28;20104;-69
2022/02/09 01:58:50;;;;;;;3.70;1.38;;;24.60;64.60;;;;;;5052402;28;20108;-68
2022/02/09 02:01:16;;;;;;;2.70;1.33;;;24.60;64.70;;;;;;5050526;28;20024;-68
2022/02/09 02:03:44;;;;;;;3.38;1.17;;;24.60;64.80;;;;;;5052410;28;20033;-69
2022/02/09 02:06:13;;;;;;;3.05;1.08;;;24.60;64.80;;;;;;5051647;28;20056;-69
2022/02/09 02:08:40;;;;;;;4.53;1.38;;;24.60;64.90;;;;;;5047217;28;20033;-69
2022/02/09 02:18:37;;;;;;;4.80;1.15;;;24.60;65.80;;;;;;5048973;28;20082;-69
2022/02/09 02:32:18;;;;;;;3.65;1.33;;;24.50;65.60;;;;;;5047397;28;20079;-69
2022/02/09 03:09:47;;;;;;;8.57;1.00;;;24.30;66.40;;;;;;5049963;28;20083;-69
2022/02/09 03:12:08;;;;;;;11.65;1.77;;;24.20;66.70;;;;;;5049064;28;20045;-69
2022/02/09 03:14:54;;;;;;;22.42;2.20;;;24.20;66.90;;;;;;5049725;28;20045;-69
2022/02/09 03:17:30;;;;;;;24.30;3.55;;;24.20;66.90;;;;;;5050299;28;20025;-69
2022/02/09 03:20:20;;;;;;;11.02;2.05;;;24.20;66.90;;;;;;5050021;28;20103;-69
2022/02/09 03:55:11;;;;;;;0.98;0.30;;;24.10;67.40;;;;;;5050382;28;20059;-69
2022/02/09 03:57:46;;;;;;;32.13;4.43;;;24.10;67.40;;;;;;5047047;28;20036;-70
2022/02/09 04:00:24;;;;;;;16.65;4.68;;;24.10;67.40;;;;;;5050033;28;20032;-69
2022/02/09 04:02:54;;;;;;;19.85;7.43;;;24.10;67.40;;;;;;5048673;28;20542;-70
2022/02/09 04:05:21;;;;;;;38.70;6.82;;;24.00;67.40;;;;;;5049722;28;20025;-69
2022/02/09 04:07:47;;;;;;;51.55;6.85;;;23.90;68.30;;;;;;5049798;28;20024;-72
2022/02/09 04:10:20;;;;;;;20.33;3.60;;;23.90;68.60;;;;;;5048521;28;20078;-70
2022/02/09 04:15:31;;;;;;;18.23;2.00;;;23.90;68.10;;;;;;5048781;28;20079;-69
2022/02/09 04:22:25;;;;;;;62.50;6.45;;;23.90;68.10;;;;;;5047030;28;20680;-71
2022/02/09 04:41:08;;;;;;;12.93;3.00;;;23.90;68.10;;;;;;5048007;28;20051;-72
2022/02/09 04:48:40;;;;;;;12.55;2.00;;;23.90;68.70;;;;;;5049316;28;20036;-72
2022/02/09 05:21:15;;;;;;;11.60;1.58;;;24.10;68.50;;;;;;5048340;28;20059;-70
2022/02/09 05:23:39;;;;;;;27.20;3.08;;;24.10;68.60;;;;;;5045731;28;20519;-71
2022/02/09 05:26:36;;;;;;;9.68;1.33;;;24.10;68.70;;;;;;5046121;28;20025;-71
2022/02/09 05:28:55;;;;;;;9.73;1.33;;;24.20;68.70;;;;;;5047404;28;20091;-71
2022/02/09 05:31:22;;;;;;;3.80;0.70;;;24.20;68.60;;;;;;5049665;28;20024;-70
2022/02/09 05:33:48;;;;;;;28.92;3.83;;;24.20;68.50;;;;;;5048295;28;20484;-71
2022/02/09 05:36:16;;;;;;;256.50;18.63;;;24.20;68.50;;;;;;5048728;28;20028;-71
2022/02/09 05:38:43;;;;;;;241.43;20.27;;;24.20;68.70;;;;;;5049476;28;20025;-71
2022/02/09 05:41:09;;;;;;;161.48;13.75;;;24.30;69.40;;;;;;5048433;28;20025;-71
2022/02/09 05:43:36;;;;;;;75.60;8.10;;;24.30;69.20;;;;;;5048502;28;20029;-71
2022/02/09 05:53:59;;;;;;;29.52;3.65;;;24.40;68.10;;;;;;5049539;28;20029;-70
2022/02/09 05:59:31;;;;;;;24.25;2.05;;;24.50;67.70;;;;;;5049056;28;20481;-71
2022/02/09 06:02:19;;;;;;;;;;;24.60;67.70;;;;;;5048403;28;20040;-71
2022/02/09 06:05:25;;;;;;;5.30;1.10;;;24.60;67.50;;;;;;5049861;28;19913;-71
2022/02/09 06:08:11;;;;;;;;;;;24.60;67.20;;;;;;5048106;28;20705;-71
2022/02/09 06:11:27;;;;;;;22.52;3.35;;;24.70;67.00;;;;;;5050070;28;19930;-71
2022/02/09 06:21:04;;;;;;;4.30;1.10;;;24.80;66.10;;;;;;5003855;28;20050;-71
2022/02/09 06:23:49;;;;;;;;;;;24.90;65.90;;;;;;5007325;28;20037;-71
2022/02/09 06:26:16;;;;;;;5.05;0.82;;;24.90;65.70;;;;;;5046954;28;19948;-69
2022/02/09 06:28:44;;;;;;;4.03;1.30;;;24.90;65.40;;;;;;5049127;28;20040;-69
2022/02/09 06:31:10;;;;;;;3.10;1.00;;;24.90;65.30;;;;;;5051573;28;20032;-69
2022/02/09 06:33:37;;;;;;;6.43;1.13;;;24.90;65.10;;;;;;5049976;28;20032;-69
2022/02/09 06:36:07;;;;;;;8.80;1.90;;;24.90;64.90;;;;;;5051823;28;20025;-69
2022/02/09 06:38:38;;;;;;;11.18;2.72;;;25.00;64.80;;;;;;5050419;28;20025;-69
2022/02/09 06:41:07;;;;;;;10.80;1.30;;;25.00;64.70;;;;;;5051846;28;20079;-69
2022/02/09 06:43:34;;;;;;;7.13;1.35;;;25.00;64.60;;;;;;5050206;28;20017;-69
2022/02/09 06:46:02;;;;;;;5.60;1.23;;;25.00;64.50;;;;;;5048396;28;20421;-69
2022/02/09 06:48:30;;;;;;;5.78;1.27;;;25.10;64.40;;;;;;5050378;28;20047;-69
2022/02/09 06:51:02;;;;;;;3.50;1.48;;;25.00;64.20;;;;;;5049400;28;20388;-71
2022/02/09 06:53:38;;;;;;;2.58;1.45;;;25.10;64.20;;;;;;5050037;28;20040;-69
2022/02/09 06:56:04;;;;;;;4.03;2.22;;;25.10;64.20;;;;;;5049516;28;20020;-69
2022/02/09 07:01:07;;;;;;;8.38;1.65;;;25.10;64.10;;;;;;5046727;28;20035;-69
2022/02/09 07:03:34;;;;;;;9.88;2.00;;;25.20;64.10;;;;;;5050072;28;20020;-69
2022/02/09 07:06:01;;;;;;;20.15;2.88;;;25.20;64.10;;;;;;5051294;28;20021;-69
2022/02/09 07:08:28;;;;;;;35.63;3.28;;;25.20;64.10;;;;;;5049467;28;20408;-69
2022/02/09 07:10:55;;;;;;;17.55;3.15;;;25.20;64.20;;;;;;5051072;28;20029;-70
2022/02/09 07:13:21;;;;;;;13.63;2.78;;;25.20;64.00;;;;;;5050174;28;20033;-69
2022/02/09 07:15:51;;;;;;;14.10;2.40;;;25.30;64.10;;;;;;5049873;28;20079;-69
2022/02/09 07:18:18;;;;;;;19.35;2.65;;;25.30;64.10;;;;;;5050702;28;20021;-69
2022/02/09 07:23:54;;;;;;;11.32;1.70;;;25.30;63.80;;;;;;5050788;28;20051;-69
2022/02/09 07:26:14;;;;;;;6.43;1.98;;;25.40;63.70;;;;;;5047630;28;20037;-69
2022/02/09 07:28:41;;;;;;;6.68;1.25;;;25.40;63.60;;;;;;5048688;28;20029;-69
2022/02/09 07:31:09;;;;;;;3.38;1.38;;;25.40;63.50;;;;;;5050377;28;20392;-69
2022/02/09 07:33:37;;;;;;;8.30;1.30;;;25.40;63.30;;;;;;5049670;28;20123;-69
2022/02/09 07:36:05;;;;;;;3.20;1.10;;;25.40;63.00;;;;;;5041729;28;20167;-69
2022/02/09 07:38:31;;;;;;;4.22;1.20;;;25.50;62.80;;;;;;5049871;28;20131;-69
2022/02/09 07:40:59;;;;;;;3.13;0.82;;;25.50;62.50;;;;;;5050171;28;20029;-69
2022/02/09 07:54:09;;;;;;;4.90;1.23;;;25.50;63.00;;;;;;5048706;28;20031;-69
2022/02/09 07:56:39;;;;;;;4.80;1.08;;;25.60;62.70;;;;;;5049440;28;20055;-71
2022/02/09 07:59:08;;;;;;;7.55;1.33;;;25.60;63.20;;;;;;5049778;28;20017;-69
2022/02/09 08:01:35;;;;;;;23.73;1.58;;;25.60;63.90;;;;;;5050066;28;20021;-69
2022/02/09 08:04:02;;;;;;;20.58;1.85;;;25.60;64.10;;;;;;5049083;28;20006;-69
2022/02/09 08:06:29;;;;;;;9.63;1.13;;;25.60;64.60;;;;;;5049555;28;20096;-68
2022/02/09 08:09:01;;;;;;;8.18;1.20;;;25.60;64.80;;;;;;5049010;28;20017;-68
2022/02/09 08:11:42;;;;;;;6.28;0.77;;;25.60;65.10;;;;;;5049796;28;20052;-68
2022/02/09 08:27:44;;;;;;;5.93;0.85;;;25.80;65.40;;;;;;5050203;28;20036;-68
2022/02/09 08:33:07;;;;;;;7.45;1.20;;;25.90;65.40;;;;;;5049571;28;20488;-68
2022/02/09 08:35:30;;;;;;;3.40;1.13;;;25.90;65.20;;;;;;5048212;28;20106;-69
2022/02/09 08:37:58;;;;;;;5.70;1.20;;;25.90;64.80;;;;;;5049736;28;20396;-68
2022/02/09 08:40:26;;;;;;;2.10;0.75;;;25.90;64.40;;;;;;5049377;28;20021;-69
2022/02/09 08:42:54;;;;;;;6.88;1.27;;;25.90;64.40;;;;;;5048713;28;20059;-68
2022/02/09 08:45:21;;;;;;;7.13;1.23;;;25.90;64.40;;;;;;5047450;28;20048;-68
2022/02/09 08:47:49;;;;;;;11.23;2.13;;;26.00;64.30;;;;;;5048464;28;20021;-69
2022/02/09 08:50:16;;;;;;;28.90;2.97;;;26.10;63.90;;;;;;5049556;28;20365;-69
2022/02/09 08:52:43;;;;;;;17.02;1.67;;;26.10;62.90;;;;;;5048299;28;20029;-69
2022/02/09 08:55:11;;;;;;;23.88;2.08;;;26.20;62.50;;;;;;5049906;28;20021;-69
2022/02/09 08:57:37;;;;;;;11.07;2.03;;;26.20;61.30;;;;;;5049286;28;20021;-69
2022/02/09 09:00:23;;;;;;;14.80;1.35;;;26.20;60.60;;;;;;5048699;28;20108;-69
2022/02/09 09:03:04;;;;;;;39.25;3.97;;;26.30;60.00;;;;;;5048687;28;20516;-69
2022/02/09 09:05:42;;;;;;;31.08;3.95;;;26.30;59.40;;;;;;5048217;28;21145;-69
2022/02/09 10:34:26;;;;;;;6.88;1.10;;;27.70;55.50;;;;;;5046746;28;20037;-69
2022/02/09 10:37:02;;;;;;;1.33;0.82;;;27.70;55.90;;;;;;5049751;28;20056;-69
2022/02/09 10:40:02;;;;;;;2.70;1.00;;;27.70;56.20;;;;;;5049597;28;20643;-69
2022/02/09 10:42:46;;;;;;;4.03;1.85;;;27.70;56.60;;;;;;5049609;28;20476;-69
2022/02/09 10:45:48;;;;;;;3.95;0.93;;;27.70;56.90;;;;;;5045436;28;20086;-69
2022/02/09 10:48:35;;;;;;;2.08;0.90;;;27.70;57.50;;;;;;5049106;28;20023;-68
2022/02/09 10:54:25;;;;;;;3.50;1.08;;;27.80;57.00;;;;;;5048166;28;20044;-68
2022/02/09 10:56:59;;;;;;;5.80;1.40;;;27.80;56.60;;;;;;5049599;28;20047;-69
2022/02/09 10:59:29;;;;;;;7.20;1.70;;;27.80;56.50;;;;;;5050533;28;20025;-69
2022/02/09 11:02:00;;;;;;;3.70;1.25;;;27.80;56.10;;;;;;5049620;28;20014;-68
2022/02/09 11:04:28;;;;;;;2.88;1.10;;;27.80;54.70;;;;;;5048952;28;20068;-69
2022/02/09 11:06:55;;;;;;;4.45;0.60;;;27.80;54.00;;;;;;5048658;28;20021;-69
2022/02/09 11:09:22;;;;;;;2.55;0.90;;;27.90;54.00;;;;;;5049747;28;20784;-69
2022/02/09 11:11:51;;;;;;;3.97;1.00;;;27.90;53.90;;;;;;5049678;28;20033;-69
2022/02/09 11:14:20;;;;;;;4.18;0.85;;;27.90;54.10;;;;;;5048849;28;20036;-68
2022/02/09 11:16:57;;;;;;;4.72;1.00;;;28.00;54.10;;;;;;5050310;28;20013;-69
2022/02/09 11:19:36;;;;;;;2.40;0.98;;;28.10;54.10;;;;;;5048284;28;20469;-69
2022/02/09 11:22:11;;;;;;;3.80;0.80;;;28.10;53.80;;;;;;5050015;28;20434;-70
2022/02/09 11:24:45;;;;;;;1.10;0.52;;;28.20;53.90;;;;;;5048950;28;20070;-69
2022/02/09 11:27:23;;;;;;;2.35;0.68;;;28.20;53.60;;;;;;5048568;28;20066;-69
2022/02/09 11:30:07;;;;;;;1.70;0.60;;;28.30;53.10;;;;;;5047706;28;20052;-69
2022/02/09 11:35:22;;;;;;;6.20;1.00;;;28.30;53.20;;;;;;5048381;28;20032;-69
2022/02/09 11:38:13;;;;;;;3.65;1.10;;;28.40;53.20;;;;;;5047618;28;20112;-69
2022/02/09 11:41:09;;;;;;;2.03;0.70;;;28.40;53.10;;;;;;5047302;28;20661;-69
2022/02/09 11:44:03;;;;;;;2.83;1.00;;;28.40;53.20;;;;;;5049488;28;20068;-69
2022/02/09 11:49:57;;;;;;;3.13;0.85;;;28.50;53.80;;;;;;5047404;28;20047;-68
2022/02/09 11:52:45;;;;;;;1.65;0.70;;;28.60;54.20;;;;;;5047044;28;20052;-69
2022/02/09 12:09:50;;;;;;;4.57;1.20;;;28.70;55.90;;;;;;5049102;28;20036;-69
2022/02/09 12:12:22;;;;;;;3.67;1.27;;;28.70;55.80;;;;;;5047413;28;20056;-70
2022/02/09 12:20:14;;;;;;;6.88;0.85;;;28.70;56.50;;;;;;5045943;28;20040;-69
2022/02/09 12:22:46;;;;;;;1.85;0.90;;;28.70;56.60;;;;;;5048805;28;20166;-69
2022/02/09 12:25:13;;;;;;;5.53;1.30;;;28.80;56.20;;;;;;5049137;28;20021;-69
2022/02/09 12:27:47;;;;;;;2.95;0.93;;;28.80;56.50;;;;;;5045426;28;20420;-69
2022/02/09 12:30:13;;;;;;;2.67;0.88;;;28.80;56.70;;;;;;5049135;28;20431;-69
2022/02/09 12:32:42;;;;;;;5.10;1.25;;;28.80;56.60;;;;;;5048522;28;20025;-69
2022/02/09 12:35:10;;;;;;;3.25;1.00;;;28.80;56.40;;;;;;5049780;28;20441;-69
2022/02/09 12:37:44;;;;;;;2.83;0.85;;;28.80;56.50;;;;;;5047555;28;20021;-69
2022/02/09 12:40:10;;;;;;;6.50;1.33;;;28.80;56.80;;;;;;5046533;28;20025;-69
2022/02/09 12:42:42;;;;;;;4.55;1.25;;;28.90;56.80;;;;;;5046038;28;20496;-69
2022/02/09 12:45:11;;;;;;;4.57;1.23;;;28.90;56.10;;;;;;5048495;28;20112;-71
2022/02/09 12:47:41;;;;;;;3.33;1.00;;;28.90;55.80;;;;;;5043893;28;20061;-70
2022/02/09 12:50:12;;;;;;;3.63;1.55;;;28.90;55.80;;;;;;5048437;28;20017;-69
2022/02/09 12:52:40;;;;;;;4.07;1.02;;;28.90;55.60;;;;;;5050281;28;20036;-69
2022/02/09 12:55:19;;;;;;;4.05;1.23;;;29.00;55.60;;;;;;5052467;28;20134;-69
2022/02/09 12:57:58;;;;;;;2.25;0.88;;;29.00;56.30;;;;;;5049859;28;20029;-69
2022/02/09 13:00:29;;;;;;;2.50;1.10;;;29.00;55.50;;;;;;5051660;28;20055;-69
2022/02/09 13:02:57;;;;;;;4.97;2.13;;;29.00;55.50;;;;;;5050367;28;20480;-69
2022/02/09 13:05:25;;;;;;;3.42;0.95;;;29.00;56.00;;;;;;5053220;28;20488;-69
2022/02/09 13:08:03;;;;;;;3.00;1.10;;;29.00;56.40;;;;;;5052750;28;20021;-69
2022/02/09 13:10:39;;;;;;;4.15;1.00;;;29.00;56.60;;;;;;5052072;28;20460;-71
2022/02/09 13:13:22;;;;;;;5.22;1.30;;;29.00;56.30;;;;;;5050795;28;20031;-69
2022/02/09 13:16:10;;;;;;;2.78;1.63;;;29.00;56.20;;;;;;5049117;28;20677;-69
2022/02/09 13:25:14;;;;;;;1.77;0.90;;;29.00;55.60;;;;;;5026056;28;20108;-69
2022/02/09 14:11:35;;;;;;;4.95;1.35;;;28.90;58.10;;;;;;5051954;28;20580;-69
2022/02/09 14:16:56;;;;;;;3.78;1.10;;;28.80;57.90;;;;;;5047826;28;20140;-69
2022/02/09 14:52:34;;;;;;;78.75;6.85;;;28.80;60.00;;;;;;5046553;28;20095;-69
2022/02/09 14:58:02;;;;;;;23.73;3.25;;;28.80;59.20;;;;;;5048617;28;20091;-68
2022/02/09 15:00:29;;;;;;;29.58;3.70;;;28.80;59.70;;;;;;5046901;28;20365;-71
2022/02/09 15:03:06;;;;;;;37.50;4.07;;;28.80;59.80;;;;;;5049770;28;20043;-69
2022/02/09 15:06:08;;;;;;;58.88;6.80;;;28.80;60.20;;;;;;5047886;28;20120;-70
2022/02/09 15:11:09;;;;;;;11.63;2.30;;;28.80;60.30;;;;;;5048794;28;20033;-69
2022/02/09 15:14:14;;;;;;;64.43;5.28;;;28.80;59.80;;;;;;5046511;28;20029;-69
2022/02/09 15:16:37;;;;;;;70.80;6.25;;;28.80;60.10;;;;;;5046888;28;20147;-69
2022/02/09 15:24:23;;;;;;;26.20;7.65;;;28.70;61.20;;;;;;5032457;28;20090;-66
2022/02/09 15:26:52;;;;;;;21.42;6.05;;;28.70;60.30;;;;;;5045018;28;20491;-68
2022/02/09 15:29:19;;;;;;;33.08;4.22;;;28.70;60.00;;;;;;5045767;28;20055;-71
2022/02/09 15:31:51;;;;;;;32.67;5.03;;;28.70;60.10;;;;;;5046323;28;20071;-70
2022/02/09 15:34:28;;;;;;;58.15;4.90;;;28.70;60.20;;;;;;5043817;28;20115;-68
2022/02/09 15:39:23;;;;;;;45.72;4.30;;;28.70;60.50;;;;;;5047099;28;20675;-68
2022/02/09 16:09:37;;;;;;;44.67;6.57;;;28.50;60.40;;;;;;5044009;28;20032;-68
2022/02/09 16:18:25;;;;;;;97.53;10.98;;;28.40;62.50;;;;;;5046733;28;20032;-73
2022/02/09 16:23:04;;;;;;;35.55;3.58;;;28.30;60.80;;;;;;5046598;28;20032;-71
2022/02/09 16:45:02;;;;;;;13.60;2.65;;;28.10;62.30;;;;;;4996728;28;20041;-71
2022/02/09 16:50:06;;;;;;;31.58;3.28;;;28.10;62.40;;;;;;5049103;28;20469;-70
2022/02/09 16:52:51;;;;;;;20.90;3.88;;;28.00;61.20;;;;;;5047799;28;20056;-70
2022/02/09 17:19:41;;;;;;;17.17;2.85;;;27.70;61.70;;;;;;5046087;28;19940;-69
2022/02/09 17:22:08;;;;;;;30.25;3.67;;;27.60;61.10;;;;;;5046598;28;20354;-69
2022/02/09 17:24:36;;;;;;;25.65;2.95;;;27.60;61.00;;;;;;5047241;28;20017;-69
2022/02/09 17:27:04;;;;;;;13.05;2.67;;;27.60;61.00;;;;;;5046378;28;20498;-69
2022/02/09 17:32:15;;;;;;;13.82;2.80;;;27.50;60.70;;;;;;5046243;28;20037;-71
2022/02/09 17:53:35;;;;;;;19.08;4.10;;;27.20;61.70;;;;;;5048304;28;20395;-69
2022/02/09 17:56:16;;;;;;;22.38;3.45;;;27.20;62.30;;;;;;5045430;28;20035;-70
2022/02/09 17:58:51;;;;;;;13.07;4.10;;;27.20;62.70;;;;;;5047867;28;20032;-69
2022/02/09 18:01:20;;;;;;;27.70;5.00;;;27.20;62.80;;;;;;5042116;28;20017;-69
2022/02/09 18:03:47;;;;;;;29.75;3.17;;;27.20;63.00;;;;;;5045597;28;20022;-69
2022/02/09 18:06:20;;;;;;;30.23;4.20;;;27.20;63.40;;;;;;5046388;28;20557;-69
2022/02/09 18:08:57;;;;;;;21.73;3.35;;;27.20;63.80;;;;;;5045107;28;20461;-70
2022/02/09 18:30:29;;;;;;;14.57;10.07;;;27.10;63.00;;;;;;5047459;28;20079;-72
2022/02/09 18:33:11;;;;;;;9.18;5.75;;;27.10;62.90;;;;;;5046619;28;20086;-71
2022/02/09 18:39:04;;;;;;;12.07;3.55;;;27.10;62.80;;;;;;5048758;28;20388;-74
2022/02/09 18:44:19;;;;;;;5.68;2.40;;;27.00;62.90;;;;;;5049043;28;20032;-71
2022/02/09 19:03:33;;;;;;;8.05;3.47;;;26.80;63.40;;;;;;5046866;28;20041;-71
2022/02/09 19:06:06;;;;;;;7.10;3.20;;;26.80;63.60;;;;;;5048342;28;20495;-72
2022/02/09 19:16:53;;;;;;;8.20;3.40;;;26.80;64.00;;;;;;5046686;28;20084;-73
2022/02/09 19:49:30;;;;;;;2.47;1.50;;;26.50;64.70;;;;;;5046073;28;20029;-74
2022/02/09 19:57:05;;;;;;;14.23;3.38;;;26.50;65.10;;;;;;5047874;28;20103;-71
2022/02/09 19:59:35;;;;;;;12.93;3.13;;;26.50;65.10;;;;;;5045077;28;20076;-71
2022/02/09 20:02:02;;;;;;;23.55;8.15;;;26.40;65.10;;;;;;5047100;28;20361;-73
2022/02/09 20:04:28;;;;;;;23.90;15.93;;;26.40;65.20;;;;;;5042973;28;20033;-72
2022/02/09 20:06:56;;;;;;;26.08;11.68;;;26.40;65.20;;;;;;5048839;28;20739;-73
2022/02/09 20:09:25;;;;;;;16.40;6.78;;;26.40;65.30;;;;;;5046647;28;20025;-72
2022/02/09 20:11:53;;;;;;;11.77;4.38;;;26.40;65.50;;;;;;5047217;28;20029;-73
2022/02/09 20:14:21;;;;;;;13.85;4.80;;;26.40;65.50;;;;;;5047788;28;20090;-73
2022/02/09 20:16:48;;;;;;;12.93;3.33;;;26.30;65.30;;;;;;5047050;28;20028;-73
2022/02/09 20:19:15;;;;;;;12.20;2.72;;;26.30;65.20;;;;;;5044851;28;20032;-72
2022/02/09 20:21:41;;;;;;;13.15;3.53;;;26.30;65.30;;;;;;5045108;28;20034;-72
2022/02/09 20:24:12;;;;;;;11.70;3.63;;;26.30;65.40;;;;;;5048147;28;20020;-71
2022/02/09 20:26:39;;;;;;;21.45;3.63;;;26.30;65.40;;;;;;5047182;28;20074;-71
2022/02/09 20:29:20;;;;;;;14.68;4.18;;;26.30;65.50;;;;;;5046268;28;20480;-72
2022/02/09 20:31:57;;;;;;;9.52;3.25;;;26.30;65.80;;;;;;5048269;28;20036;-71
2022/02/09 20:34:32;;;;;;;5.53;3.13;;;26.30;66.10;;;;;;5046186;28;20388;-72
2022/02/09 20:36:58;;;;;;;13.23;4.80;;;26.30;66.20;;;;;;5045643;28;20439;-72
2022/02/09 20:39:33;;;;;;;12.63;4.00;;;26.20;66.30;;;;;;5043652;28;20090;-72
2022/02/09 20:42:01;;;;;;;22.67;4.13;;;26.20;66.30;;;;;;5048060;28;20104;-71
2022/02/09 20:44:40;;;;;;;30.08;6.07;;;26.20;66.30;;;;;;5047610;28;20116;-71
2022/02/09 20:47:06;;;;;;;18.30;4.38;;;26.20;66.30;;;;;;5044541;28;20074;-71
2022/02/09 20:49:33;;;;;;;16.42;2.60;;;26.20;66.40;;;;;;5045874;28;20025;-73
2022/02/09 20:51:59;;;;;;;13.80;3.90;;;26.20;66.50;;;;;;5047714;28;20021;-72
2022/02/09 20:54:26;;;;;;;19.10;2.45;;;26.20;66.70;;;;;;5048080;28;20029;-72
2022/02/09 20:56:52;;;;;;;7.18;1.80;;;26.10;66.60;;;;;;5048060;28;20072;-71
2022/02/09 20:59:19;;;;;;;11.30;2.50;;;26.10;66.40;;;;;;5046196;28;20025;-71
2022/02/09 21:04:21;;;;;;;10.48;2.70;;;26.10;66.50;;;;;;5046561;28;20058;-71
2022/02/09 21:07:15;;;;;;;14.23;2.53;;;26.10;66.50;;;;;;5047200;28;20029;-71
2022/02/09 21:10:14;;;;;;;12.27;3.35;;;26.00;66.60;;;;;;5045411;28;20029;-71
2022/02/09 21:12:42;;;;;;;8.75;2.10;;;26.00;66.80;;;;;;5048314;28;20057;-72
2022/02/09 21:24:07;;;;;;;6.70;2.00;;;26.00;67.00;;;;;;5049090;28;20037;-72
2022/02/09 21:30:12;;;;;;;8.57;2.50;;;26.00;67.10;;;;;;5051352;28;20542;-71
2022/02/09 21:55:12;;;;;;;6.38;2.20;;;25.90;67.50;;;;;;5050769;28;20036;-71
2022/02/09 21:58:23;;;;;;;11.05;2.60;;;25.90;67.70;;;;;;5050617;28;20376;-71
2022/02/09 22:22:39;;;;;;;5.90;1.80;;;25.80;68.00;;;;;;5047257;28;20059;-70
2022/02/09 22:27:56;;;;;;;9.32;1.90;;;25.90;68.10;;;;;;5043592;28;20079;-71
2022/02/09 22:34:12;;;;;;;6.40;2.55;;;25.90;68.20;;;;;;5048492;28;20087;-71
2022/02/09 22:47:38;;;;;;;3.13;1.40;;;25.90;68.40;;;;;;5046899;28;20036;-71
2022/02/09 22:50:04;;;;;;;7.30;2.30;;;25.90;68.50;;;;;;5051096;28;20507;-72
2022/02/09 22:55:20;;;;;;;4.95;1.88;;;25.90;68.50;;;;;;5051005;28;20025;-72
2022/02/09 22:57:56;;;;;;;7.78;2.28;;;25.90;68.50;;;;;;5047123;28;20025;-71
2022/02/09 23:00:37;;;;;;;6.38;1.85;;;25.90;68.50;;;;;;5050922;28;20036;-72
2022/02/09 23:03:04;;;;;;;11.52;2.10;;;25.80;68.40;;;;;;5050979;28;20128;-71
2022/02/09 23:13:36;;;;;;;6.60;2.20;;;25.80;68.40;;;;;;5050612;28;20033;-72
2022/02/09 23:52:42;;;;;;;5.63;2.28;;;25.80;68.40;;;;;;5047751;28;20071;-71
2022/02/09 23:57:17;;;;;;;8.02;1.95;;;25.80;69.00;;;;;;5028312;28;20044;-72
